Oakfield, Maine
Current Conditions -  °F | °C
As of 12:53 PM on Friday 28 Nov 2014 (Local Time) from KHUL Reporting Station
Broken Clouds Broken Clouds  
Wind Chill: 11°   Ceiling: 10000
Heat Index: 20°   Visibility: 10mi
Dew Point: 10°   Wind: 7mph
Humidity: 65%   Direction: 360°N
Pressure: 29.96"   Gusts: NA
Location:  46.1°N, 68.15°W
Report Text: KHUL 281753Z AUTO 36006KT 10SM BKN100 M07/M12 A2996 RMK AO2 SLP156 T10671122 11067 21156 56016
Loading
Personal Weather Stations






























Interactive Weather Map New forecast layout! Learn more

10-Day Weather Forecast

Advertisements
Track Severe Weather on mobile